sensor_id;sensor_type;location;lat;lon;timestamp;pressure;altitude;pressure_sealevel;temperature;humidity
51259;BME280;37327;54.254;18.504;2023-02-12T00:02:40;102490.71;;;0.95;100.00
51259;BME280;37327;54.254;18.504;2023-02-12T00:05:47;102485.56;;;0.92;100.00
51259;BME280;37327;54.254;18.504;2023-02-12T00:08:55;102488.28;;;0.90;100.00
51259;BME280;37327;54.254;18.504;2023-02-12T00:12:03;102495.38;;;0.90;100.00
51259;BME280;37327;54.254;18.504;2023-02-12T00:15:09;102499.77;;;0.91;100.00
51259;BME280;37327;54.254;18.504;2023-02-12T00:18:16;102513.07;;;0.91;100.00
51259;BME280;37327;54.254;18.504;2023-02-12T00:21:24;102505.21;;;0.88;100.00
51259;BME280;37327;54.254;18.504;2023-02-12T00:24:31;102503.52;;;0.87;100.00
51259;BME280;37327;54.254;18.504;2023-02-12T00:27:38;102516.81;;;0.87;100.00
51259;BME280;37327;54.254;18.504;2023-02-12T00:30:45;102510.53;;;0.88;100.00
51259;BME280;37327;54.254;18.504;2023-02-12T00:33:53;102515.86;;;0.88;100.00
51259;BME280;37327;54.254;18.504;2023-02-12T00:36:59;102526.50;;;0.88;100.00
51259;BME280;37327;54.254;18.504;2023-02-12T00:40:07;102535.42;;;0.87;100.00
51259;BME280;37327;54.254;18.504;2023-02-12T00:43:14;102538.09;;;0.87;100.00
51259;BME280;37327;54.254;18.504;2023-02-12T00:46:22;102530.10;;;0.87;100.00
51259;BME280;37327;54.254;18.504;2023-02-12T00:49:30;102530.16;;;0.85;100.00
51259;BME280;37327;54.254;18.504;2023-02-12T00:52:41;102538.15;;;0.85;100.00
51259;BME280;37327;54.254;18.504;2023-02-12T00:55:48;102533.77;;;0.84;100.00
51259;BME280;37327;54.254;18.504;2023-02-12T00:58:55;102533.05;;;0.81;100.00
51259;BME280;37327;54.254;18.504;2023-02-12T01:02:02;102542.73;;;0.82;100.00
51259;BME280;37327;54.254;18.504;2023-02-12T01:05:09;102549.93;;;0.79;100.00
51259;BME280;37327;54.254;18.504;2023-02-12T01:08:16;102553.53;;;0.78;100.00
51259;BME280;37327;54.254;18.504;2023-02-12T01:11:23;102545.62;;;0.77;100.00
51259;BME280;37327;54.254;18.504;2023-02-12T01:14:30;102544.75;;;0.76;100.00
51259;BME280;37327;54.254;18.504;2023-02-12T01:17:37;102563.37;;;0.76;100.00
51259;BME280;37327;54.254;18.504;2023-02-12T01:20:44;102567.90;;;0.74;100.00
51259;BME280;37327;54.254;18.504;2023-02-12T01:23:51;102565.36;;;0.71;100.00
51259;BME280;37327;54.254;18.504;2023-02-12T01:26:58;102563.82;;;0.66;100.00
51259;BME280;37327;54.254;18.504;2023-02-12T01:30:07;102566.54;;;0.64;100.00
51259;BME280;37327;54.254;18.504;2023-02-12T01:33:14;102580.79;;;0.63;100.00
51259;BME280;37327;54.254;18.504;2023-02-12T01:36:22;102576.52;;;0.59;100.00
51259;BME280;37327;54.254;18.504;2023-02-12T01:39:29;102579.31;;;0.56;100.00
51259;BME280;37327;54.254;18.504;2023-02-12T01:42:36;102588.30;;;0.53;100.00
51259;BME280;37327;54.254;18.504;2023-02-12T01:45:47;102594.66;;;0.49;100.00
51259;BME280;37327;54.254;18.504;2023-02-12T01:48:55;102600.95;;;0.47;100.00
51259;BME280;37327;54.254;18.504;2023-02-12T01:52:09;102601.10;;;0.44;100.00
51259;BME280;37327;54.254;18.504;2023-02-12T01:55:20;102605.63;;;0.42;100.00
51259;BME280;37327;54.254;18.504;2023-02-12T01:58:33;102599.45;;;0.41;100.00
51259;BME280;37327;54.254;18.504;2023-02-12T02:02:54;102606.68;;;0.37;100.00
51259;BME280;37327;54.254;18.504;2023-02-12T02:06:09;102605.09;;;0.33;100.00
51259;BME280;37327;54.254;18.504;2023-02-12T02:09:19;102609.61;;;0.31;100.00
51259;BME280;37327;54.254;18.504;2023-02-12T02:12:26;102613.23;;;0.29;100.00
51259;BME280;37327;54.254;18.504;2023-02-12T02:15:47;102618.73;;;0.24;100.00
51259;BME280;37327;54.254;18.504;2023-02-12T02:19:05;102613.60;;;0.19;100.00
51259;BME280;37327;54.254;18.504;2023-02-12T02:35:39;102622.78;;;-0.10;100.00
51259;BME280;37327;54.254;18.504;2023-02-12T02:42:18;102622.31;;;-0.21;100.00
51259;BME280;37327;54.254;18.504;2023-02-12T02:45:41;102623.48;;;-0.28;100.00
51259;BME280;37327;54.254;18.504;2023-02-12T02:48:52;102628.09;;;-0.33;100.00
51259;BME280;37327;54.254;18.504;2023-02-12T02:52:06;102633.58;;;-0.38;100.00
51259;BME280;37327;54.254;18.504;2023-02-12T02:55:17;102639.99;;;-0.44;100.00
51259;BME280;37327;54.254;18.504;2023-02-12T02:58:30;102628.70;;;-0.49;100.00
51259;BME280;37327;54.254;18.504;2023-02-12T03:01:48;102647.38;;;-0.52;100.00
51259;BME280;37327;54.254;18.504;2023-02-12T03:05:07;102651.08;;;-0.56;100.00
51259;BME280;37327;54.254;18.504;2023-02-12T03:08:21;102661.79;;;-0.59;100.00
51259;BME280;37327;54.254;18.504;2023-02-12T03:11:32;102657.52;;;-0.63;100.00
51259;BME280;37327;54.254;18.504;2023-02-12T03:14:51;102666.52;;;-0.67;100.00
51259;BME280;37327;54.254;18.504;2023-02-12T03:17:58;102673.67;;;-0.69;100.00
51259;BME280;37327;54.254;18.504;2023-02-12T03:21:11;102679.08;;;-0.72;100.00
51259;BME280;37327;54.254;18.504;2023-02-12T03:27:48;102689.10;;;-0.81;100.00
51259;BME280;37327;54.254;18.504;2023-02-12T03:37:35;102697.98;;;-0.82;100.00
51259;BME280;37327;54.254;18.504;2023-02-12T03:40:55;102703.30;;;-0.82;100.00
51259;BME280;37327;54.254;18.504;2023-02-12T03:44:09;102718.27;;;-0.81;100.00
51259;BME280;37327;54.254;18.504;2023-02-12T03:50:55;102725.46;;;-0.84;100.00
51259;BME280;37327;54.254;18.504;2023-02-12T03:53:58;102736.20;;;-0.87;100.00
51259;BME280;37327;54.254;18.504;2023-02-12T03:57:13;102732.77;;;-0.91;100.00
51259;BME280;37327;54.254;18.504;2023-02-12T04:00:23;102728.55;;;-0.96;100.00
51259;BME280;37327;54.254;18.504;2023-02-12T04:03:31;102727.83;;;-1.02;100.00
51259;BME280;37327;54.254;18.504;2023-02-12T04:06:39;102724.50;;;-1.07;100.00
51259;BME280;37327;54.254;18.504;2023-02-12T04:09:46;102725.46;;;-1.09;100.00
51259;BME280;37327;54.254;18.504;2023-02-12T04:26:16;102738.98;;;-1.17;100.00
51259;BME280;37327;54.254;18.504;2023-02-12T04:29:31;102739.93;;;-1.20;100.00
51259;BME280;37327;54.254;18.504;2023-02-12T04:32:52;102742.70;;;-1.23;100.00
51259;BME280;37327;54.254;18.504;2023-02-12T04:39:23;102748.09;;;-1.26;100.00
51259;BME280;37327;54.254;18.504;2023-02-12T04:45:49;102749.07;;;-1.28;100.00
51259;BME280;37327;54.254;18.504;2023-02-12T04:48:57;102752.69;;;-1.31;100.00
51259;BME280;37327;54.254;18.504;2023-02-12T04:52:05;102757.10;;;-1.31;100.00
51259;BME280;37327;54.254;18.504;2023-02-12T04:55:14;102765.10;;;-1.33;100.00
51259;BME280;37327;54.254;18.504;2023-02-12T04:58:21;102756.34;;;-1.35;100.00
51259;BME280;37327;54.254;18.504;2023-02-12T05:01:27;102760.77;;;-1.35;100.00
51259;BME280;37327;54.254;18.504;2023-02-12T05:04:34;102756.41;;;-1.36;100.00
51259;BME280;37327;54.254;18.504;2023-02-12T05:07:42;102761.74;;;-1.38;100.00
51259;BME280;37327;54.254;18.504;2023-02-12T05:10:48;102754.70;;;-1.39;100.00
51259;BME280;37327;54.254;18.504;2023-02-12T05:13:56;102764.44;;;-1.40;100.00
51259;BME280;37327;54.254;18.504;2023-02-12T05:17:02;102760.16;;;-1.44;100.00
51259;BME280;37327;54.254;18.504;2023-02-12T05:20:10;102757.55;;;-1.45;100.00
51259;BME280;37327;54.254;18.504;2023-02-12T05:23:17;102766.43;;;-1.46;100.00
51259;BME280;37327;54.254;18.504;2023-02-12T05:26:24;102774.38;;;-1.46;100.00
51259;BME280;37327;54.254;18.504;2023-02-12T05:29:31;102767.37;;;-1.49;100.00
51259;BME280;37327;54.254;18.504;2023-02-12T05:32:37;102764.83;;;-1.52;100.00
51259;BME280;37327;54.254;18.504;2023-02-12T05:35:44;102764.88;;;-1.53;100.00
51259;BME280;37327;54.254;18.504;2023-02-12T05:38:55;102770.27;;;-1.56;100.00
51259;BME280;37327;54.254;18.504;2023-02-12T05:42:03;102769.52;;;-1.60;100.00
51259;BME280;37327;54.254;18.504;2023-02-12T05:45:10;102777.50;;;-1.62;100.00
51259;BME280;37327;54.254;18.504;2023-02-12T05:48:16;102783.70;;;-1.63;100.00
51259;BME280;37327;54.254;18.504;2023-02-12T05:51:25;102777.50;;;-1.62;100.00
51259;BME280;37327;54.254;18.504;2023-02-12T05:54:32;102788.10;;;-1.62;100.00
51259;BME280;37327;54.254;18.504;2023-02-12T05:57:39;102789.82;;;-1.61;100.00
51259;BME280;37327;54.254;18.504;2023-02-12T06:00:46;102790.64;;;-1.59;100.00
51259;BME280;37327;54.254;18.504;2023-02-12T06:03:53;102794.10;;;-1.56;100.00
51259;BME280;37327;54.254;18.504;2023-02-12T06:07:00;102798.46;;;-1.54;100.00
51259;BME280;37327;54.254;18.504;2023-02-12T06:10:08;102806.34;;;-1.52;100.00
51259;BME280;37327;54.254;18.504;2023-02-12T06:13:15;102816.04;;;-1.51;100.00
51259;BME280;37327;54.254;18.504;2023-02-12T06:16:25;102815.17;;;-1.52;100.00
51259;BME280;37327;54.254;18.504;2023-02-12T06:19:32;102822.23;;;-1.52;100.00
51259;BME280;37327;54.254;18.504;2023-02-12T06:22:39;102822.23;;;-1.52;100.00
51259;BME280;37327;54.254;18.504;2023-02-12T06:25:47;102827.54;;;-1.52;100.00
51259;BME280;37327;54.254;18.504;2023-02-12T06:28:54;102826.63;;;-1.51;100.00
51259;BME280;37327;54.254;18.504;2023-02-12T06:32:01;102833.77;;;-1.53;100.00
51259;BME280;37327;54.254;18.504;2023-02-12T06:35:08;102835.44;;;-1.51;100.00
51259;BME280;37327;54.254;18.504;2023-02-12T06:38:15;102830.02;;;-1.46;100.00
51259;BME280;37327;54.254;18.504;2023-02-12T06:41:23;102829.02;;;-1.42;100.00
51259;BME280;37327;54.254;18.504;2023-02-12T06:44:30;102831.46;;;-1.36;100.00
51259;BME280;37327;54.254;18.504;2023-02-12T06:47:37;102846.27;;;-1.29;100.00
51259;BME280;37327;54.254;18.504;2023-02-12T06:50:44;102841.67;;;-1.24;100.00
51259;BME280;37327;54.254;18.504;2023-02-12T06:53:52;102843.27;;;-1.18;100.00
51259;BME280;37327;54.254;18.504;2023-02-12T06:56:59;102839.56;;;-1.12;100.00
51259;BME280;37327;54.254;18.504;2023-02-12T07:00:08;102843.84;;;-1.08;100.00
51259;BME280;37327;54.254;18.504;2023-02-12T07:03:14;102843.68;;;-1.04;100.00
51259;BME280;37327;54.254;18.504;2023-02-12T07:06:22;102842.73;;;-1.01;100.00
51259;BME280;37327;54.254;18.504;2023-02-12T07:09:30;102842.49;;;-0.93;100.00
51259;BME280;37327;54.254;18.504;2023-02-12T07:12:38;102835.09;;;-0.84;100.00
51259;BME280;37327;54.254;18.504;2023-02-12T07:15:44;102831.27;;;-0.75;100.00
51259;BME280;37327;54.254;18.504;2023-02-12T07:18:52;102821.33;;;-0.68;100.00
51259;BME280;37327;54.254;18.504;2023-02-12T07:21:58;102816.70;;;-0.63;100.00
51259;BME280;37327;54.254;18.504;2023-02-12T07:25:07;102824.45;;;-0.57;100.00
51259;BME280;37327;54.254;18.504;2023-02-12T07:28:14;102823.34;;;-0.50;100.00
51259;BME280;37327;54.254;18.504;2023-02-12T07:31:22;102831.94;;;-0.43;100.00
51259;BME280;37327;54.254;18.504;2023-02-12T07:34:30;102838.72;;;-0.34;100.00
51259;BME280;37327;54.254;18.504;2023-02-12T07:37:37;102832.27;;;-0.27;100.00
51259;BME280;37327;54.254;18.504;2023-02-12T07:40:43;102832.02;;;-0.19;100.00
51259;BME280;37327;54.254;18.504;2023-02-12T07:43:55;102836.20;;;-0.14;100.00
51259;BME280;37327;54.254;18.504;2023-02-12T07:47:02;102826.24;;;-0.07;100.00
51259;BME280;37327;54.254;18.504;2023-02-12T07:50:11;102833.08;;;0.00;100.00
51259;BME280;37327;54.254;18.504;2023-02-12T07:53:18;102828.34;;;0.08;100.00
51259;BME280;37327;54.254;18.504;2023-02-12T07:56:27;102820.09;;;0.16;100.00
51259;BME280;37327;54.254;18.504;2023-02-12T07:59:38;102820.66;;;0.24;100.00
51259;BME280;37327;54.254;18.504;2023-02-12T08:02:50;102810.59;;;0.32;100.00
51259;BME280;37327;54.254;18.504;2023-02-12T08:05:57;102812.96;;;0.40;100.00
51259;BME280;37327;54.254;18.504;2023-02-12T08:09:07;102811.73;;;0.49;100.00
51259;BME280;37327;54.254;18.504;2023-02-12T08:12:18;102811.38;;;0.58;100.00
51259;BME280;37327;54.254;18.504;2023-02-12T08:15:25;102804.84;;;0.67;100.00
51259;BME280;37327;54.254;18.504;2023-02-12T08:18:33;102809.05;;;0.72;100.00
51259;BME280;37327;54.254;18.504;2023-02-12T08:21:40;102815.04;;;0.77;100.00
51259;BME280;37327;54.254;18.504;2023-02-12T08:24:48;102818.32;;;0.84;100.00
51259;BME280;37327;54.254;18.504;2023-02-12T08:27:55;102816.32;;;0.89;100.00
51259;BME280;37327;54.254;18.504;2023-02-12T08:31:04;102821.39;;;0.95;100.00
51259;BME280;37327;54.254;18.504;2023-02-12T08:34:18;102824.68;;;1.02;100.00
51259;BME280;37327;54.254;18.504;2023-02-12T08:37:25;102822.51;;;1.12;100.00
51259;BME280;37327;54.254;18.504;2023-02-12T08:40:32;102813.26;;;1.21;100.00
51259;BME280;37327;54.254;18.504;2023-02-12T08:43:40;102805.02;;;1.27;100.00
51259;BME280;37327;54.254;18.504;2023-02-12T08:46:51;102797.59;;;1.35;100.00
51259;BME280;37327;54.254;18.504;2023-02-12T08:50:00;102799.83;;;1.44;100.00
51259;BME280;37327;54.254;18.504;2023-02-12T08:53:08;102802.22;;;1.50;100.00
51259;BME280;37327;54.254;18.504;2023-02-12T08:56:16;102804.70;;;1.55;100.00
51259;BME280;37327;54.254;18.504;2023-02-12T08:59:24;102807.31;;;1.56;100.00
51259;BME280;37327;54.254;18.504;2023-02-12T09:02:31;102808.02;;;1.60;100.00
51259;BME280;37327;54.254;18.504;2023-02-12T09:05:39;102809.64;;;1.64;100.00
51259;BME280;37327;54.254;18.504;2023-02-12T09:08:47;102808.63;;;1.67;100.00
51259;BME280;37327;54.254;18.504;2023-02-12T09:11:54;102811.96;;;1.72;100.00
51259;BME280;37327;54.254;18.504;2023-02-12T09:15:01;102817.14;;;1.75;100.00
51259;BME280;37327;54.254;18.504;2023-02-12T09:18:10;102810.74;;;1.79;100.00
51259;BME280;37327;54.254;18.504;2023-02-12T09:21:17;102801.73;;;1.82;100.00
51259;BME280;37327;54.254;18.504;2023-02-12T09:24:25;102789.15;;;1.85;100.00
51259;BME280;37327;54.254;18.504;2023-02-12T09:27:33;102786.20;;;1.91;100.00
51259;BME280;37327;54.254;18.504;2023-02-12T09:30:40;102795.81;;;1.95;100.00
51259;BME280;37327;54.254;18.504;2023-02-12T09:33:47;102807.96;;;2.01;100.00
51259;BME280;37327;54.254;18.504;2023-02-12T09:36:54;102811.23;;;2.08;100.00
51259;BME280;37327;54.254;18.504;2023-02-12T09:40:00;102809.14;;;2.14;100.00
51259;BME280;37327;54.254;18.504;2023-02-12T09:43:24;102810.46;;;2.25;100.00
51259;BME280;37327;54.254;18.504;2023-02-12T09:46:44;102803.88;;;2.32;100.00
51259;BME280;37327;54.254;18.504;2023-02-12T09:53:16;102790.56;;;2.51;100.00
51259;BME280;37327;54.254;18.504;2023-02-12T09:56:25;102789.34;;;2.58;100.00
51259;BME280;37327;54.254;18.504;2023-02-12T09:59:49;102785.52;;;2.64;100.00
51259;BME280;37327;54.254;18.504;2023-02-12T10:02:52;102788.80;;;2.69;100.00
51259;BME280;37327;54.254;18.504;2023-02-12T10:06:11;102793.93;;;2.73;100.00
51259;BME280;37327;54.254;18.504;2023-02-12T10:09:31;102792.92;;;2.76;100.00
51259;BME280;37327;54.254;18.504;2023-02-12T10:16:15;102789.08;;;2.82;99.83
51259;BME280;37327;54.254;18.504;2023-02-12T10:29:25;102765.56;;;3.07;98.65
51259;BME280;37327;54.254;18.504;2023-02-12T10:32:34;102759.13;;;3.11;97.95
51259;BME280;37327;54.254;18.504;2023-02-12T10:35:53;102752.63;;;3.17;97.51
51259;BME280;37327;54.254;18.504;2023-02-12T10:42:31;102756.29;;;3.32;97.19
51259;BME280;37327;54.254;18.504;2023-02-12T10:45:39;102739.09;;;3.38;96.75
51259;BME280;37327;54.254;18.504;2023-02-12T10:48:52;102727.08;;;3.46;96.91
51259;BME280;37327;54.254;18.504;2023-02-12T10:52:10;102719.66;;;3.51;96.87
51259;BME280;37327;54.254;18.504;2023-02-12T11:01:59;102720.14;;;3.60;96.72
51259;BME280;37327;54.254;18.504;2023-02-12T11:05:21;102720.98;;;3.60;97.13
51259;BME280;37327;54.254;18.504;2023-02-12T11:08:32;102721.91;;;3.59;97.22
51259;BME280;37327;54.254;18.504;2023-02-12T11:11:39;102728.14;;;3.60;97.52
51259;BME280;37327;54.254;18.504;2023-02-12T11:14:49;102731.60;;;3.62;97.79
51259;BME280;37327;54.254;18.504;2023-02-12T11:18:00;102735.57;;;3.70;97.92
51259;BME280;37327;54.254;18.504;2023-02-12T11:21:11;102742.25;;;3.79;98.18
51259;BME280;37327;54.254;18.504;2023-02-12T11:27:37;102704.58;;;4.00;97.47
51259;BME280;37327;54.254;18.504;2023-02-12T11:34:13;102695.79;;;4.13;97.38
51259;BME280;37327;54.254;18.504;2023-02-12T11:37:21;102697.18;;;4.21;97.39
51259;BME280;37327;54.254;18.504;2023-02-12T11:40:32;102698.89;;;4.22;97.27
51259;BME280;37327;54.254;18.504;2023-02-12T11:43:39;102698.03;;;4.21;97.06
51259;BME280;37327;54.254;18.504;2023-02-12T11:46:57;102696.22;;;4.22;97.30
51259;BME280;37327;54.254;18.504;2023-02-12T11:50:08;102706.48;;;4.29;97.48
51259;BME280;37327;54.254;18.504;2023-02-12T11:53:23;102711.51;;;4.35;96.66
51259;BME280;37327;54.254;18.504;2023-02-12T11:59:50;102711.51;;;4.35;96.42
51259;BME280;37327;54.254;18.504;2023-02-12T12:03:10;102715.47;;;4.28;96.08
51259;BME280;37327;54.254;18.504;2023-02-12T12:06:26;102736.66;;;4.15;96.31
51259;BME280;37327;54.254;18.504;2023-02-12T12:09:45;102732.52;;;4.10;96.90
51259;BME280;37327;54.254;18.504;2023-02-12T12:13:01;102733.98;;;4.00;96.74
51259;BME280;37327;54.254;18.504;2023-02-12T12:16:13;102720.96;;;3.93;97.47
51259;BME280;37327;54.254;18.504;2023-02-12T12:26:25;102690.77;;;3.75;98.52
51259;BME280;37327;54.254;18.504;2023-02-12T12:29:41;102697.23;;;3.71;99.22
51259;BME280;37327;54.254;18.504;2023-02-12T12:32:52;102694.20;;;3.62;99.27
51259;BME280;37327;54.254;18.504;2023-02-12T12:46:02;102665.78;;;3.43;100.00
51259;BME280;37327;54.254;18.504;2023-02-12T12:56:02;102640.47;;;3.34;100.00
51259;BME280;37327;54.254;18.504;2023-02-12T12:59:24;102636.13;;;3.32;100.00
51259;BME280;37327;54.254;18.504;2023-02-12T13:09:22;102631.64;;;3.16;100.00
51259;BME280;37327;54.254;18.504;2023-02-12T13:12:34;102634.98;;;3.20;100.00
51259;BME280;37327;54.254;18.504;2023-02-12T13:22:38;102649.66;;;3.29;100.00
51259;BME280;37327;54.254;18.504;2023-02-12T13:29:15;102660.27;;;3.30;100.00
51259;BME280;37327;54.254;18.504;2023-02-12T13:35:46;102666.02;;;3.23;100.00
51259;BME280;37327;54.254;18.504;2023-02-12T13:42:33;102664.60;;;3.15;100.00
51259;BME280;37327;54.254;18.504;2023-02-12T13:49:02;102660.62;;;3.07;100.00
51259;BME280;37327;54.254;18.504;2023-02-12T13:55:53;102649.24;;;3.03;100.00
51259;BME280;37327;54.254;18.504;2023-02-12T13:58:52;102655.58;;;3.01;100.00
51259;BME280;37327;54.254;18.504;2023-02-12T14:02:23;102659.36;;;2.96;100.00
51259;BME280;37327;54.254;18.504;2023-02-12T14:05:22;102654.13;;;2.95;100.00
51259;BME280;37327;54.254;18.504;2023-02-12T14:08:38;102651.34;;;2.96;100.00
51259;BME280;37327;54.254;18.504;2023-02-12T14:11:48;102658.42;;;2.98;100.00
51259;BME280;37327;54.254;18.504;2023-02-12T14:15:05;102652.13;;;2.99;100.00
51259;BME280;37327;54.254;18.504;2023-02-12T14:21:35;102657.40;;;3.00;100.00
51259;BME280;37327;54.254;18.504;2023-02-12T14:24:50;102653.69;;;3.03;100.00
51259;BME280;37327;54.254;18.504;2023-02-12T14:28:12;102657.07;;;3.06;100.00
51259;BME280;37327;54.254;18.504;2023-02-12T14:31:30;102662.26;;;3.09;100.00
51259;BME280;37327;54.254;18.504;2023-02-12T14:34:38;102658.48;;;3.13;100.00
51259;BME280;37327;54.254;18.504;2023-02-12T14:37:45;102634.31;;;3.16;100.00
51259;BME280;37327;54.254;18.504;2023-02-12T14:41:13;102633.27;;;3.19;100.00
51259;BME280;37327;54.254;18.504;2023-02-12T14:47:48;102625.78;;;3.26;100.00
51259;BME280;37327;54.254;18.504;2023-02-12T14:50:56;102613.99;;;3.30;100.00
51259;BME280;37327;54.254;18.504;2023-02-12T14:54:14;102617.45;;;3.32;100.00
51259;BME280;37327;54.254;18.504;2023-02-12T15:00:46;102628.95;;;3.34;100.00
51259;BME280;37327;54.254;18.504;2023-02-12T15:03:57;102619.88;;;3.36;100.00
51259;BME280;37327;54.254;18.504;2023-02-12T15:07:09;102612.73;;;3.37;100.00
51259;BME280;37327;54.254;18.504;2023-02-12T15:10:21;102620.81;;;3.35;100.00
51259;BME280;37327;54.254;18.504;2023-02-12T15:16:54;102629.71;;;3.36;100.00
51259;BME280;37327;54.254;18.504;2023-02-12T15:20:18;102623.48;;;3.35;100.00
51259;BME280;37327;54.254;18.504;2023-02-12T15:23:36;102617.28;;;3.35;100.00
51259;BME280;37327;54.254;18.504;2023-02-12T15:26:49;102611.17;;;3.33;100.00
51259;BME280;37327;54.254;18.504;2023-02-12T15:29:57;102613.84;;;3.33;100.00
51259;BME280;37327;54.254;18.504;2023-02-12T15:33:05;102604.02;;;3.33;100.00
51259;BME280;37327;54.254;18.504;2023-02-12T15:36:20;102608.50;;;3.33;100.00
51259;BME280;37327;54.254;18.504;2023-02-12T15:42:57;102603.25;;;3.31;100.00
51259;BME280;37327;54.254;18.504;2023-02-12T15:46:11;102598.87;;;3.30;100.00
51259;BME280;37327;54.254;18.504;2023-02-12T15:49:18;102594.52;;;3.28;100.00
51259;BME280;37327;54.254;18.504;2023-02-12T15:52:33;102591.86;;;3.28;100.00
51259;BME280;37327;54.254;18.504;2023-02-12T15:55:44;102584.89;;;3.25;100.00
51259;BME280;37327;54.254;18.504;2023-02-12T15:58:57;102584.03;;;3.25;100.00
51259;BME280;37327;54.254;18.504;2023-02-12T16:05:25;102576.95;;;3.24;100.00
51259;BME280;37327;54.254;18.504;2023-02-12T16:08:33;102578.00;;;3.21;100.00
51259;BME280;37327;54.254;18.504;2023-02-12T16:11:43;102578.84;;;3.22;100.00
51259;BME280;37327;54.254;18.504;2023-02-12T16:14:53;102557.57;;;3.20;100.00
51259;BME280;37327;54.254;18.504;2023-02-12T16:18:03;102559.30;;;3.21;100.00
51259;BME280;37327;54.254;18.504;2023-02-12T16:21:16;102554.05;;;3.20;100.00
51259;BME280;37327;54.254;18.504;2023-02-12T16:24:34;102563.80;;;3.21;100.00
51259;BME280;37327;54.254;18.504;2023-02-12T16:31:06;102575.24;;;3.23;100.00
51259;BME280;37327;54.254;18.504;2023-02-12T16:37:42;102573.37;;;3.25;100.00
51259;BME280;37327;54.254;18.504;2023-02-12T16:47:26;102585.25;;;3.35;100.00
51259;BME280;37327;54.254;18.504;2023-02-12T16:50:35;102574.41;;;3.38;100.00
51259;BME280;37327;54.254;18.504;2023-02-12T16:53:44;102587.57;;;3.41;100.00
51259;BME280;37327;54.254;18.504;2023-02-12T16:56:53;102592.76;;;3.44;100.00
51259;BME280;37327;54.254;18.504;2023-02-12T17:00:00;102596.22;;;3.46;100.00
51259;BME280;37327;54.254;18.504;2023-02-12T17:03:12;102588.13;;;3.48;100.00
51259;BME280;37327;54.254;18.504;2023-02-12T17:06:25;102588.89;;;3.50;100.00
51259;BME280;37327;54.254;18.504;2023-02-12T17:09:33;102587.85;;;3.52;100.00
51259;BME280;37327;54.254;18.504;2023-02-12T17:12:49;102587.70;;;3.55;100.00
51259;BME280;37327;54.254;18.504;2023-02-12T17:15:59;102583.13;;;3.58;100.00
51259;BME280;37327;54.254;18.504;2023-02-12T17:19:09;102589.06;;;3.63;100.00
51259;BME280;37327;54.254;18.504;2023-02-12T17:22:22;102578.22;;;3.66;100.00
51259;BME280;37327;54.254;18.504;2023-02-12T17:25:30;102573.65;;;3.68;100.00
51259;BME280;37327;54.254;18.504;2023-02-12T17:28:41;102585.95;;;3.70;100.00
51259;BME280;37327;54.254;18.504;2023-02-12T17:31:48;102584.14;;;3.71;100.00
51259;BME280;37327;54.254;18.504;2023-02-12T17:34:58;102587.59;;;3.73;100.00
51259;BME280;37327;54.254;18.504;2023-02-12T17:38:06;102581.32;;;3.74;100.00
51259;BME280;37327;54.254;18.504;2023-02-12T17:41:13;102579.42;;;3.76;100.00
51259;BME280;37327;54.254;18.504;2023-02-12T17:44:20;102574.91;;;3.76;100.00
51259;BME280;37327;54.254;18.504;2023-02-12T17:47:27;102561.48;;;3.78;100.00
51259;BME280;37327;54.254;18.504;2023-02-12T17:50:36;102582.01;;;3.78;100.00
51259;BME280;37327;54.254;18.504;2023-02-12T17:53:43;102574.91;;;3.76;100.00
51259;BME280;37327;54.254;18.504;2023-02-12T17:56:50;102574.84;;;3.78;100.00
51259;BME280;37327;54.254;18.504;2023-02-12T17:59:57;102564.08;;;3.80;100.00
51259;BME280;37327;54.254;18.504;2023-02-12T18:03:04;102558.66;;;3.81;100.00
51259;BME280;37327;54.254;18.504;2023-02-12T18:06:12;102570.96;;;3.84;100.00
51259;BME280;37327;54.254;18.504;2023-02-12T18:09:21;102563.72;;;3.86;100.00
51259;BME280;37327;54.254;18.504;2023-02-12T18:12:30;102566.31;;;3.87;100.00
51259;BME280;37327;54.254;18.504;2023-02-12T18:15:39;102561.74;;;3.89;100.00
51259;BME280;37327;54.254;18.504;2023-02-12T18:18:46;102554.49;;;3.91;100.00
51259;BME280;37327;54.254;18.504;2023-02-12T18:21:54;102554.49;;;3.91;100.00
51259;BME280;37327;54.254;18.504;2023-02-12T18:25:01;102550.00;;;3.92;100.00
51259;BME280;37327;54.254;18.504;2023-02-12T18:28:10;102549.93;;;3.93;100.00
51259;BME280;37327;54.254;18.504;2023-02-12T18:31:18;102545.51;;;3.92;100.00
51259;BME280;37327;54.254;18.504;2023-02-12T18:34:25;102543.73;;;3.93;100.00
51259;BME280;37327;54.254;18.504;2023-02-12T18:37:32;102548.09;;;3.94;100.00
51259;BME280;37327;54.254;18.504;2023-02-12T18:40:39;102547.33;;;3.92;100.00
51259;BME280;37327;54.254;18.504;2023-02-12T18:43:47;102547.33;;;3.92;100.00
51259;BME280;37327;54.254;18.504;2023-02-12T18:46:54;102548.18;;;3.92;100.00
51259;BME280;37327;54.254;18.504;2023-02-12T18:50:06;102534.83;;;3.92;100.00
51259;BME280;37327;54.254;18.504;2023-02-12T18:53:13;102547.25;;;3.93;100.00
51259;BME280;37327;54.254;18.504;2023-02-12T18:56:20;102555.12;;;3.97;100.00
51259;BME280;37327;54.254;18.504;2023-02-12T18:59:27;102559.40;;;3.99;100.00
51259;BME280;37327;54.254;18.504;2023-02-12T19:02:34;102567.14;;;4.04;100.00
51259;BME280;37327;54.254;18.504;2023-02-12T19:05:41;102562.41;;;4.09;100.00
51259;BME280;37327;54.254;18.504;2023-02-12T19:08:52;102560.30;;;4.14;100.00
51259;BME280;37327;54.254;18.504;2023-02-12T19:12:00;102550.41;;;4.16;100.00
51259;BME280;37327;54.254;18.504;2023-02-12T19:15:08;102546.61;;;4.20;100.00